createdAt,value
2023-01-18T00:01:05.861Z,-1.70
2023-01-18T00:03:33.894Z,-1.67
2023-01-18T00:06:02.244Z,-1.61
2023-01-18T00:08:31.196Z,-1.79
2023-01-18T00:11:15.577Z,-1.60
2023-01-18T00:13:42.494Z,-1.63
2023-01-18T00:16:13.143Z,-1.71
2023-01-18T00:18:40.345Z,-1.68
2023-01-18T00:21:09.283Z,-1.67
2023-01-18T00:23:36.808Z,-1.73
2023-01-18T00:26:09.494Z,-1.70
2023-01-18T00:28:40.395Z,-1.73
2023-01-18T00:31:18.654Z,-1.67
2023-01-18T00:33:47.158Z,-1.66
2023-01-18T00:36:14.626Z,-1.70
2023-01-18T00:38:41.518Z,-1.69
2023-01-18T00:41:10.382Z,-1.72
2023-01-18T00:43:42.349Z,-1.73
2023-01-18T00:46:14.627Z,-1.74
2023-01-18T00:48:42.773Z,-1.76
2023-01-18T00:51:12.061Z,-1.92
2023-01-18T00:53:39.477Z,-1.86
2023-01-18T00:56:10.775Z,-1.97
2023-01-18T00:58:37.742Z,-1.89
2023-01-18T01:01:06.304Z,-1.84
2023-01-18T01:03:51.592Z,-1.99
2023-01-18T01:06:48.398Z,-1.81
2023-01-18T01:09:15.131Z,-1.84
2023-01-18T01:12:02.149Z,-1.89
2023-01-18T01:14:50.842Z,-2.10
2023-01-18T01:17:36.530Z,-1.88
2023-01-18T01:20:22.324Z,-1.95
2023-01-18T01:23:07.335Z,-2.16
2023-01-18T01:25:55.609Z,-1.93
2023-01-18T01:28:25.579Z,-1.92
2023-01-18T01:30:56.423Z,-2.12
2023-01-18T01:33:23.265Z,-2.01
2023-01-18T01:35:50.078Z,-2.02
2023-01-18T01:38:16.739Z,-2.21
2023-01-18T01:40:43.351Z,-2.12
2023-01-18T01:43:13.456Z,-2.04
2023-01-18T01:45:42.397Z,-2.06
2023-01-18T01:48:10.934Z,-2.08
2023-01-18T01:50:40.223Z,-2.09
2023-01-18T01:53:08.587Z,-2.09
2023-01-18T01:55:37.889Z,-2.08
2023-01-18T01:58:18.675Z,-2.35
2023-01-18T02:00:46.146Z,-2.13
2023-01-18T02:03:18.562Z,-2.11
2023-01-18T02:05:50.680Z,-2.12
2023-01-18T02:08:22.767Z,-2.14
2023-01-18T02:10:52.730Z,-2.15
2023-01-18T02:13:23.693Z,-2.15
2023-01-18T02:15:53.184Z,-2.17
2023-01-18T02:18:26.903Z,-2.22
2023-01-18T02:20:53.797Z,-2.22
2023-01-18T02:23:29.522Z,-2.50
2023-01-18T02:26:31.786Z,-2.21
2023-01-18T02:29:15.145Z,-2.40
2023-01-18T02:32:12.702Z,-2.36
2023-01-18T02:34:51.859Z,-2.26
2023-01-18T02:37:38.018Z,-2.23
2023-01-18T02:40:34.430Z,-2.27
2023-01-18T02:43:23.505Z,-2.26
2023-01-18T02:46:09.179Z,-2.27
2023-01-18T02:48:39.105Z,-2.43
2023-01-18T02:51:06.581Z,-2.27
2023-01-18T02:53:40.347Z,-2.24
2023-01-18T02:56:13.669Z,-2.24
2023-01-18T02:58:47.411Z,-2.29
2023-01-18T03:01:28.734Z,-2.30
2023-01-18T03:04:01.979Z,-2.49
2023-01-18T03:06:30.033Z,-2.50
2023-01-18T03:09:00.633Z,-2.34
2023-01-18T03:11:33.338Z,-2.36
2023-01-18T03:14:22.137Z,-2.37
2023-01-18T03:17:07.400Z,-2.37
2023-01-18T03:20:03.137Z,-2.39
2023-01-18T03:22:55.510Z,-2.55
2023-01-18T03:25:35.170Z,-2.44
2023-01-18T03:28:32.648Z,-2.48
2023-01-18T03:31:22.173Z,-2.42
2023-01-18T03:34:05.816Z,-2.55
2023-01-18T03:36:40.500Z,-2.53
2023-01-18T03:39:19.109Z,-2.54
2023-01-18T03:41:51.849Z,-2.42
2023-01-18T03:44:41.297Z,-2.48
2023-01-18T03:47:08.654Z,-2.49
2023-01-18T03:49:35.928Z,-2.51
2023-01-18T03:52:20.412Z,-2.46
2023-01-18T03:54:51.640Z,-2.63
2023-01-18T03:57:36.454Z,-2.51
2023-01-18T04:00:06.100Z,-2.48
2023-01-18T04:02:35.236Z,-2.48
2023-01-18T04:05:04.381Z,-2.63
2023-01-18T04:07:31.829Z,-2.44
2023-01-18T04:09:59.824Z,-2.46
2023-01-18T04:12:26.905Z,-2.45
2023-01-18T04:14:56.209Z,-2.45
2023-01-18T04:17:22.901Z,-2.45
2023-01-18T04:19:49.505Z,-2.47
2023-01-18T04:22:16.849Z,-2.55
2023-01-18T04:24:43.502Z,-2.60
2023-01-18T04:27:10.173Z,-2.58
2023-01-18T04:29:36.837Z,-2.60
2023-01-18T04:32:04.167Z,-2.71
2023-01-18T04:34:30.750Z,-2.51
2023-01-18T04:36:59.627Z,-2.55
2023-01-18T04:39:26.440Z,-2.57
2023-01-18T04:41:53.076Z,-2.50
2023-01-18T04:44:22.245Z,-2.56
2023-01-18T04:46:49.154Z,-2.65
2023-01-18T04:49:17.486Z,-2.57
2023-01-18T04:51:49.640Z,-2.76
2023-01-18T04:54:18.336Z,-2.59
2023-01-18T04:56:47.480Z,-2.71
2023-01-18T04:59:17.799Z,-2.52
2023-01-18T05:01:44.523Z,-2.50
2023-01-18T05:04:11.257Z,-2.39
2023-01-18T05:06:38.032Z,-2.36
2023-01-18T05:09:04.868Z,-2.49
2023-01-18T05:11:31.428Z,-2.33
2023-01-18T05:14:00.336Z,-2.34
2023-01-18T05:16:27.804Z,-2.33
2023-01-18T05:18:54.667Z,-2.32
2023-01-18T05:21:21.646Z,-2.47
2023-01-18T05:23:50.810Z,-2.34
2023-01-18T05:26:19.783Z,-2.33
2023-01-18T05:28:47.557Z,-2.32
2023-01-18T05:31:15.755Z,-2.53
2023-01-18T05:33:42.798Z,-2.36
2023-01-18T05:36:09.893Z,-2.57
2023-01-18T05:38:36.573Z,-2.58
2023-01-18T05:41:03.556Z,-2.41
2023-01-18T05:43:30.353Z,-2.42
2023-01-18T05:45:57.739Z,-2.42
2023-01-18T05:48:24.825Z,-2.44
2023-01-18T05:50:51.959Z,-2.63
2023-01-18T05:53:20.908Z,-2.49
2023-01-18T05:55:55.908Z,-2.52
2023-01-18T05:58:22.668Z,-2.53
2023-01-18T06:00:49.626Z,-2.48
2023-01-18T06:03:16.446Z,-2.51
2023-01-18T06:05:43.022Z,-2.61
2023-01-18T06:08:09.683Z,-2.47
2023-01-18T06:10:36.255Z,-2.46
2023-01-18T06:13:05.372Z,-2.48
2023-01-18T06:15:34.370Z,-2.47
2023-01-18T06:18:01.134Z,-2.49
2023-01-18T06:20:30.600Z,-2.46
2023-01-18T06:22:58.564Z,-2.45
2023-01-18T06:25:26.911Z,-2.67
2023-01-18T06:27:53.492Z,-2.54
2023-01-18T06:30:26.178Z,-2.57
2023-01-18T06:32:55.327Z,-2.76
2023-01-18T06:35:22.166Z,-2.50
2023-01-18T06:37:48.862Z,-2.62
2023-01-18T06:40:15.846Z,-2.66
2023-01-18T06:42:42.811Z,-2.66
2023-01-18T06:45:09.853Z,-2.52
2023-01-18T06:47:36.423Z,-2.86
2023-01-18T06:50:05.508Z,-2.51
2023-01-18T06:52:32.190Z,-2.68
2023-01-18T06:54:59.078Z,-2.50
2023-01-18T06:57:25.742Z,-2.46
2023-01-18T06:59:55.032Z,-2.68
2023-01-18T07:02:21.978Z,-2.48
2023-01-18T07:04:48.860Z,-2.48
2023-01-18T07:07:15.647Z,-2.48
2023-01-18T07:09:44.752Z,-2.54
2023-01-18T07:12:13.719Z,-2.50
2023-01-18T07:14:40.810Z,-2.47
2023-01-18T07:17:08.881Z,-2.60
2023-01-18T07:19:38.772Z,-2.46
2023-01-18T07:22:07.826Z,-2.46
2023-01-18T07:24:34.508Z,-2.60
2023-01-18T07:27:01.180Z,-2.43
2023-01-18T07:29:31.018Z,-2.46
2023-01-18T07:31:57.952Z,-2.48
2023-01-18T07:34:27.141Z,-2.43
2023-01-18T07:36:54.401Z,-2.42
2023-01-18T07:39:21.049Z,-2.59
2023-01-18T07:41:47.754Z,-2.40
2023-01-18T07:44:14.308Z,-2.62
2023-01-18T07:46:43.192Z,-2.37
2023-01-18T07:49:10.059Z,-2.37
2023-01-18T07:51:36.915Z,-2.37
2023-01-18T07:54:03.949Z,-2.49
2023-01-18T07:56:30.845Z,-2.37
2023-01-18T07:58:57.579Z,-2.38
2023-01-18T08:01:25.105Z,-2.31
2023-01-18T08:03:53.786Z,-2.36
2023-01-18T08:06:25.577Z,-2.28
2023-01-18T08:08:57.070Z,-2.25
2023-01-18T08:11:26.397Z,-2.23
2023-01-18T08:13:53.098Z,-2.18
2023-01-18T08:16:20.107Z,-2.13
2023-01-18T08:18:50.120Z,-2.07
2023-01-18T08:21:19.236Z,-2.04
2023-01-18T08:23:45.972Z,-1.98
2023-01-18T08:26:15.415Z,-1.94
2023-01-18T08:28:42.027Z,-2.10
2023-01-18T08:31:17.868Z,-2.00
2023-01-18T08:33:47.669Z,-1.85
2023-01-18T08:36:25.550Z,-1.82
2023-01-18T08:38:57.454Z,-1.77
2023-01-18T08:41:28.515Z,-1.94
2023-01-18T08:43:56.196Z,-1.73
2023-01-18T08:46:23.432Z,-1.74
2023-01-18T08:48:57.866Z,-1.86
2023-01-18T08:51:26.447Z,-1.72
2023-01-18T08:53:57.110Z,-1.79
2023-01-18T08:56:23.866Z,-1.59
2023-01-18T08:58:52.247Z,-1.55
2023-01-18T09:01:19.159Z,-1.51
2023-01-18T09:03:48.021Z,-1.46
2023-01-18T09:06:16.848Z,-1.41
2023-01-18T09:08:43.664Z,-1.52
2023-01-18T09:11:10.792Z,-1.49
2023-01-18T09:13:58.475Z,-1.28
2023-01-18T09:16:26.361Z,-1.21
2023-01-18T09:18:55.304Z,-1.16
2023-01-18T09:21:21.956Z,-1.27
2023-01-18T09:23:49.294Z,-1.12
2023-01-18T09:26:17.608Z,-1.13
2023-01-18T09:28:44.918Z,-1.14
2023-01-18T09:31:12.483Z,-0.92
2023-01-18T09:33:40.303Z,-0.89
2023-01-18T09:36:10.087Z,-0.98
2023-01-18T09:38:38.405Z,-0.81
2023-01-18T09:41:24.840Z,-0.81
2023-01-18T09:43:55.264Z,-0.40
2023-01-18T09:46:23.846Z,0.05
2023-01-18T09:48:59.885Z,0.31
2023-01-18T09:51:42.132Z,0.45
2023-01-18T09:54:08.758Z,0.65
2023-01-18T09:56:46.675Z,0.78
2023-01-18T09:59:27.401Z,0.86
2023-01-18T10:01:56.089Z,0.96
2023-01-18T10:04:38.454Z,1.01
2023-01-18T10:07:17.047Z,1.13
2023-01-18T10:09:54.015Z,1.19
2023-01-18T10:12:41.070Z,1.27
2023-01-18T10:15:34.502Z,1.32
2023-01-18T10:18:01.355Z,1.38
2023-01-18T10:20:31.317Z,1.41
2023-01-18T10:23:04.026Z,1.42
2023-01-18T10:25:52.557Z,1.30
2023-01-18T10:28:41.275Z,1.51
2023-01-18T10:31:22.837Z,1.55
2023-01-18T10:33:54.735Z,1.55
2023-01-18T10:36:26.530Z,1.49
2023-01-18T10:38:55.565Z,1.59
2023-01-18T10:41:29.636Z,1.77
2023-01-18T10:43:56.790Z,1.80
2023-01-18T10:46:23.680Z,1.83
2023-01-18T10:48:52.752Z,1.74
2023-01-18T10:51:36.873Z,2.01
2023-01-18T10:54:19.079Z,1.96
2023-01-18T10:56:45.733Z,2.15
2023-01-18T10:59:25.405Z,2.22
2023-01-18T11:01:57.254Z,2.25
2023-01-18T11:04:30.062Z,2.36
2023-01-18T11:07:00.659Z,2.39
2023-01-18T11:09:39.691Z,2.48
2023-01-18T11:12:42.563Z,2.58
2023-01-18T11:15:15.653Z,2.65
2023-01-18T11:17:55.997Z,2.74
2023-01-18T11:20:30.259Z,2.68
2023-01-18T11:23:03.504Z,2.90
2023-01-18T11:25:42.758Z,2.92
2023-01-18T11:28:24.097Z,2.91
2023-01-18T11:31:05.738Z,2.97
2023-01-18T11:33:33.427Z,3.21
2023-01-18T11:36:05.155Z,3.23
2023-01-18T11:38:33.982Z,3.18
2023-01-18T11:41:06.856Z,3.37
2023-01-18T11:43:39.483Z,3.40
2023-01-18T11:46:36.953Z,3.51
2023-01-18T11:49:22.485Z,3.57
2023-01-18T11:51:57.233Z,3.65
2023-01-18T11:54:33.357Z,3.72
2023-01-18T11:57:02.978Z,3.74
2023-01-18T11:59:41.867Z,3.84
2023-01-18T12:02:14.499Z,3.91
2023-01-18T12:04:41.192Z,3.97
2023-01-18T12:07:10.887Z,4.03
2023-01-18T12:09:48.903Z,3.90
2023-01-18T12:12:38.467Z,4.14
2023-01-18T12:15:29.427Z,4.23
2023-01-18T12:18:26.903Z,4.27
2023-01-18T12:21:02.464Z,4.32
2023-01-18T12:24:06.734Z,4.37
2023-01-18T12:26:58.289Z,4.45
2023-01-18T12:29:52.729Z,4.48
2023-01-18T12:32:30.796Z,4.48
2023-01-18T12:35:25.208Z,4.53
2023-01-18T12:38:07.343Z,4.56
2023-01-18T12:40:44.803Z,4.60
2023-01-18T12:43:19.518Z,4.59
2023-01-18T12:46:09.345Z,4.81
2023-01-18T12:49:21.516Z,5.16
2023-01-18T12:51:53.074Z,5.50
2023-01-18T12:54:39.890Z,5.62
2023-01-18T12:57:07.852Z,5.71
2023-01-18T12:59:42.449Z,5.80
2023-01-18T13:02:29.813Z,5.88
2023-01-18T13:05:18.123Z,5.91
2023-01-18T13:08:06.420Z,5.86
2023-01-18T13:10:35.184Z,5.76
2023-01-18T13:13:04.168Z,5.56
2023-01-18T13:15:48.613Z,5.43
2023-01-18T13:18:27.110Z,5.48
2023-01-18T13:21:11.916Z,5.41
2023-01-18T13:23:57.227Z,5.32
2023-01-18T13:26:29.570Z,5.24
2023-01-18T13:29:29.876Z,5.11
2023-01-18T13:31:57.652Z,5.20
2023-01-18T13:34:31.431Z,5.20
2023-01-18T13:37:13.340Z,5.15
2023-01-18T13:39:47.589Z,5.09
2023-01-18T13:42:14.386Z,5.05
2023-01-18T13:44:48.230Z,4.93
2023-01-18T13:47:39.630Z,4.99
2023-01-18T13:50:28.256Z,4.95
2023-01-18T13:53:13.329Z,4.85
2023-01-18T13:56:00.220Z,4.78
2023-01-18T13:58:30.811Z,4.70
2023-01-18T14:01:03.586Z,4.65
2023-01-18T14:03:47.004Z,4.60
2023-01-18T14:06:24.965Z,4.54
2023-01-18T14:09:05.373Z,4.33
2023-01-18T14:11:37.781Z,4.45
2023-01-18T14:14:29.541Z,4.39
2023-01-18T14:17:08.854Z,4.43
2023-01-18T14:20:00.385Z,4.40
2023-01-18T14:22:37.630Z,4.43
2023-01-18T14:25:33.563Z,4.39
2023-01-18T14:28:14.628Z,4.39
2023-01-18T14:30:43.991Z,4.44
2023-01-18T14:33:16.526Z,4.33
2023-01-18T14:35:55.275Z,4.39
2023-01-18T14:38:22.019Z,4.43
2023-01-18T14:40:52.657Z,4.42
2023-01-18T14:43:45.625Z,4.47
2023-01-18T14:46:17.363Z,4.34
2023-01-18T14:48:56.291Z,4.48
2023-01-18T14:51:28.320Z,4.43
2023-01-18T14:54:00.763Z,4.24
2023-01-18T14:56:30.420Z,4.19
2023-01-18T14:58:59.775Z,4.28
2023-01-18T15:01:40.428Z,4.09
2023-01-18T15:04:20.219Z,3.97
2023-01-18T15:06:54.220Z,3.97
2023-01-18T15:09:22.547Z,3.96
2023-01-18T15:11:52.492Z,3.93
2023-01-18T15:14:29.317Z,3.99
2023-01-18T15:16:58.921Z,3.79
2023-01-18T15:19:40.530Z,3.89
2023-01-18T15:22:12.836Z,3.85
2023-01-18T15:24:41.991Z,3.79
2023-01-18T15:27:14.122Z,3.58
2023-01-18T15:29:45.915Z,3.54
2023-01-18T15:32:20.456Z,3.64
2023-01-18T15:34:49.763Z,3.49
2023-01-18T15:37:23.430Z,3.58
2023-01-18T15:40:04.058Z,3.54
2023-01-18T15:42:40.803Z,3.46
2023-01-18T15:45:18.588Z,3.43
2023-01-18T15:48:00.966Z,3.43
2023-01-18T15:50:44.408Z,3.31
2023-01-18T15:53:33.438Z,3.28
2023-01-18T15:56:07.519Z,3.21
2023-01-18T15:58:40.514Z,3.14
2023-01-18T16:01:17.070Z,3.10
2023-01-18T16:03:49.933Z,3.04
2023-01-18T16:06:22.951Z,3.01
2023-01-18T16:08:56.886Z,2.96
2023-01-18T16:11:53.328Z,2.93
2023-01-18T16:14:29.055Z,2.88
2023-01-18T16:17:07.976Z,2.80
2023-01-18T16:19:43.130Z,2.54
2023-01-18T16:22:18.848Z,2.76
2023-01-18T16:24:47.332Z,2.75
2023-01-18T16:27:20.242Z,2.59
2023-01-18T16:29:55.164Z,2.73
2023-01-18T16:32:21.803Z,2.69
2023-01-18T16:34:48.749Z,2.67
2023-01-18T16:37:17.222Z,2.68
2023-01-18T16:39:44.192Z,2.53
2023-01-18T16:42:12.266Z,2.68
2023-01-18T16:44:44.358Z,2.68
2023-01-18T16:47:12.302Z,2.60
2023-01-18T16:49:41.719Z,2.65
2023-01-18T16:52:12.756Z,2.67
2023-01-18T16:54:46.112Z,2.50
2023-01-18T16:57:21.044Z,2.64
2023-01-18T16:59:47.987Z,2.63
2023-01-18T17:02:15.102Z,2.60
2023-01-18T17:04:42.352Z,2.58
2023-01-18T17:07:09.901Z,2.48
2023-01-18T17:09:47.934Z,2.70
2023-01-18T17:12:17.875Z,2.71
2023-01-18T17:14:44.472Z,2.77
2023-01-18T17:17:11.277Z,2.63
2023-01-18T17:19:38.086Z,2.56
2023-01-18T17:22:05.018Z,2.87
2023-01-18T17:24:32.037Z,2.62
2023-01-18T17:26:58.677Z,2.91
2023-01-18T17:29:25.377Z,2.91
2023-01-18T17:31:53.053Z,2.76
2023-01-18T17:34:30.052Z,2.89
2023-01-18T17:36:58.782Z,2.88
2023-01-18T17:39:44.275Z,2.83
2023-01-18T17:42:29.847Z,2.66
2023-01-18T17:45:03.121Z,2.81
2023-01-18T17:47:34.918Z,2.80
2023-01-18T17:50:09.222Z,2.78
2023-01-18T17:52:37.260Z,2.82
2023-01-18T17:55:04.387Z,2.80
2023-01-18T17:57:31.136Z,2.81
2023-01-18T17:59:57.961Z,2.81
2023-01-18T18:02:25.554Z,2.83
2023-01-18T18:04:52.480Z,2.81
2023-01-18T18:07:19.219Z,2.89
2023-01-18T18:09:46.001Z,2.88
2023-01-18T18:12:12.741Z,2.91
2023-01-18T18:14:40.665Z,2.92
2023-01-18T18:17:07.987Z,2.88
2023-01-18T18:19:34.636Z,2.87
2023-01-18T18:22:01.890Z,2.93
2023-01-18T18:24:30.664Z,2.92
2023-01-18T18:27:03.027Z,2.93
2023-01-18T18:29:29.864Z,2.87
2023-01-18T18:31:56.764Z,2.95
2023-01-18T18:34:25.978Z,2.76
2023-01-18T18:36:52.673Z,2.91
2023-01-18T18:39:19.520Z,3.00
2023-01-18T18:41:48.698Z,3.03
2023-01-18T18:44:17.435Z,3.00
2023-01-18T18:46:44.010Z,2.83
2023-01-18T18:49:11.279Z,3.00
2023-01-18T18:51:37.897Z,2.87
2023-01-18T18:54:07.702Z,2.81
2023-01-18T18:56:34.442Z,2.86
2023-01-18T18:59:01.699Z,2.71
2023-01-18T19:01:30.174Z,2.74
2023-01-18T19:03:58.873Z,2.76
2023-01-18T19:06:26.438Z,2.73
2023-01-18T19:08:53.469Z,2.73
2023-01-18T19:11:21.034Z,2.56
2023-01-18T19:13:49.491Z,2.68
2023-01-18T19:16:17.086Z,2.66
2023-01-18T19:18:46.265Z,2.60
2023-01-18T19:21:12.980Z,2.47
2023-01-18T19:23:39.784Z,2.56
2023-01-18T19:26:06.573Z,2.42
2023-01-18T19:28:33.154Z,2.55
2023-01-18T19:31:05.611Z,2.35
2023-01-18T19:33:34.985Z,2.52
2023-01-18T19:36:16.706Z,2.37
2023-01-18T19:38:49.254Z,2.53
2023-01-18T19:41:19.237Z,2.51
2023-01-18T19:43:49.194Z,2.45
2023-01-18T19:46:16.497Z,2.52
2023-01-18T19:48:43.896Z,2.50
2023-01-18T19:51:21.627Z,2.47
2023-01-18T19:53:48.791Z,2.48
2023-01-18T19:56:15.439Z,2.33
2023-01-18T19:58:42.232Z,2.35
2023-01-18T20:01:20.445Z,2.53
2023-01-18T20:03:57.216Z,2.50
2023-01-18T20:06:24.030Z,2.41
2023-01-18T20:08:51.587Z,2.38
2023-01-18T20:11:18.587Z,2.30
2023-01-18T20:13:49.085Z,2.24
2023-01-18T20:16:21.971Z,2.24
2023-01-18T20:18:48.922Z,2.18
2023-01-18T20:21:18.484Z,1.99
2023-01-18T20:23:45.994Z,1.96
2023-01-18T20:26:17.939Z,2.02
2023-01-18T20:28:48.985Z,2.05
2023-01-18T20:31:15.577Z,2.06
2023-01-18T20:33:42.839Z,2.06
2023-01-18T20:36:11.830Z,1.95
2023-01-18T20:38:38.454Z,1.97
2023-01-18T20:41:07.241Z,1.87
2023-01-18T20:43:37.291Z,1.95
2023-01-18T20:46:06.511Z,1.96
2023-01-18T20:48:34.634Z,1.97
2023-01-18T20:51:02.614Z,2.01
2023-01-18T20:53:31.588Z,2.10
2023-01-18T20:56:17.035Z,2.17
2023-01-18T20:58:54.574Z,1.98
2023-01-18T21:01:21.517Z,2.05
2023-01-18T21:03:56.194Z,1.86
2023-01-18T21:06:23.247Z,1.93
2023-01-18T21:08:57.735Z,1.90
2023-01-18T21:11:26.797Z,1.85
2023-01-18T21:13:59.217Z,1.83
2023-01-18T21:16:27.846Z,1.83
2023-01-18T21:18:56.272Z,1.82
2023-01-18T21:21:23.914Z,1.80
2023-01-18T21:23:50.714Z,1.76
2023-01-18T21:26:19.774Z,1.81
2023-01-18T21:28:46.355Z,1.81
2023-01-18T21:31:13.032Z,1.79
2023-01-18T21:33:40.010Z,1.79
2023-01-18T21:36:11.424Z,1.70
2023-01-18T21:38:39.627Z,1.72
2023-01-18T21:41:38.497Z,1.72
2023-01-18T21:44:23.657Z,1.69
2023-01-18T21:46:51.916Z,1.53
2023-01-18T21:52:43.794Z,1.63
2023-01-18T21:55:10.466Z,1.65
2023-01-18T21:57:39.263Z,1.64
2023-01-18T22:00:07.059Z,1.44
2023-01-18T22:02:34.991Z,1.62
2023-01-18T22:05:03.589Z,1.45
2023-01-18T22:07:35.361Z,1.56
2023-01-18T22:10:16.081Z,1.58
2023-01-18T22:12:45.087Z,1.62
2023-01-18T22:15:11.915Z,1.59
2023-01-18T22:17:38.479Z,1.44
2023-01-18T22:20:05.482Z,1.59
2023-01-18T22:22:33.897Z,1.33
2023-01-18T22:25:02.279Z,1.61
2023-01-18T22:27:29.222Z,1.66
2023-01-18T22:29:55.924Z,1.74
2023-01-18T22:32:22.718Z,1.59
2023-01-18T22:34:49.311Z,1.68
2023-01-18T22:37:15.910Z,1.82
2023-01-18T22:39:42.671Z,1.93
2023-01-18T22:42:09.258Z,2.00
2023-01-18T22:44:37.085Z,2.05
2023-01-18T22:47:06.347Z,1.70
2023-01-18T22:49:33.220Z,1.99
2023-01-18T22:51:59.923Z,2.04
2023-01-18T22:54:31.523Z,1.98
2023-01-18T22:57:00.667Z,2.12
2023-01-18T22:59:27.316Z,2.13
2023-01-18T23:01:53.962Z,2.12
2023-01-18T23:04:20.747Z,2.06
2023-01-18T23:06:48.983Z,2.13
2023-01-18T23:09:17.699Z,2.06
2023-01-18T23:11:46.228Z,2.06
2023-01-18T23:14:31.852Z,2.22
2023-01-18T23:17:16.827Z,2.23
2023-01-18T23:19:44.154Z,2.23
2023-01-18T23:22:15.094Z,2.32
2023-01-18T23:24:44.224Z,2.32
2023-01-18T23:27:13.474Z,2.32
2023-01-18T23:29:40.375Z,2.37
2023-01-18T23:32:07.400Z,2.37
2023-01-18T23:34:34.281Z,2.23
2023-01-18T23:37:01.092Z,2.38
2023-01-18T23:39:46.711Z,2.38
2023-01-18T23:42:32.098Z,2.42
2023-01-18T23:45:17.329Z,2.44
2023-01-18T23:48:02.907Z,2.44
2023-01-18T23:50:48.350Z,2.28
2023-01-18T23:53:36.240Z,2.40
2023-01-18T23:56:02.929Z,2.43
2023-01-18T23:58:32.561Z,2.39
